sensor_id;sensor_type;location;lat;lon;timestamp;temperature;humidity
58554;DHT22;48119;53.218;6.576;2023-07-28T00:00:23;19.10;99.90
58554;DHT22;48119;53.218;6.576;2023-07-28T00:02:48;19.20;99.90
58554;DHT22;48119;53.218;6.576;2023-07-28T00:05:14;19.20;99.90
58554;DHT22;48119;53.218;6.576;2023-07-28T00:07:40;19.20;99.90
58554;DHT22;48119;53.218;6.576;2023-07-28T00:10:06;19.20;99.90
58554;DHT22;48119;53.218;6.576;2023-07-28T00:12:31;19.20;99.90
58554;DHT22;48119;53.218;6.576;2023-07-28T00:14:57;19.20;99.90
58554;DHT22;48119;53.218;6.576;2023-07-28T00:17:24;19.20;99.90
58554;DHT22;48119;53.218;6.576;2023-07-28T00:19:50;19.20;99.90
58554;DHT22;48119;53.218;6.576;2023-07-28T00:22:15;19.20;99.90
58554;DHT22;48119;53.218;6.576;2023-07-28T00:24:41;19.20;99.90
58554;DHT22;48119;53.218;6.576;2023-07-28T00:27:07;19.20;99.90
58554;DHT22;48119;53.218;6.576;2023-07-28T00:29:33;19.20;99.90
58554;DHT22;48119;53.218;6.576;2023-07-28T00:31:58;19.20;99.90
58554;DHT22;48119;53.218;6.576;2023-07-28T00:34:24;19.20;99.90
58554;DHT22;48119;53.218;6.576;2023-07-28T00:36:50;19.20;99.90
58554;DHT22;48119;53.218;6.576;2023-07-28T00:39:15;19.20;99.90
58554;DHT22;48119;53.218;6.576;2023-07-28T00:41:41;19.20;99.90
58554;DHT22;48119;53.218;6.576;2023-07-28T00:44:07;19.20;99.90
58554;DHT22;48119;53.218;6.576;2023-07-28T00:46:33;19.20;99.90
58554;DHT22;48119;53.218;6.576;2023-07-28T00:48:59;19.20;99.90
58554;DHT22;48119;53.218;6.576;2023-07-28T00:51:26;19.20;99.90
58554;DHT22;48119;53.218;6.576;2023-07-28T00:53:53;19.20;99.90
58554;DHT22;48119;53.218;6.576;2023-07-28T00:56:19;19.20;99.90
58554;DHT22;48119;53.218;6.576;2023-07-28T00:58:45;19.20;99.90
58554;DHT22;48119;53.218;6.576;2023-07-28T01:01:15;19.20;99.90
58554;DHT22;48119;53.218;6.576;2023-07-28T01:03:41;19.20;99.90
58554;DHT22;48119;53.218;6.576;2023-07-28T01:09:03;19.20;99.90
58554;DHT22;48119;53.218;6.576;2023-07-28T01:11:29;19.10;99.90
58554;DHT22;48119;53.218;6.576;2023-07-28T01:13:55;19.20;99.90
58554;DHT22;48119;53.218;6.576;2023-07-28T01:16:21;19.20;99.90
58554;DHT22;48119;53.218;6.576;2023-07-28T01:18:47;19.20;99.90
58554;DHT22;48119;53.218;6.576;2023-07-28T01:21:26;19.20;99.90
58554;DHT22;48119;53.218;6.576;2023-07-28T01:24:05;19.20;99.90
58554;DHT22;48119;53.218;6.576;2023-07-28T01:26:39;19.20;99.90
58554;DHT22;48119;53.218;6.576;2023-07-28T01:29:05;19.20;99.90
58554;DHT22;48119;53.218;6.576;2023-07-28T01:31:32;19.20;99.90
58554;DHT22;48119;53.218;6.576;2023-07-28T01:33:58;19.20;99.90
58554;DHT22;48119;53.218;6.576;2023-07-28T01:36:24;19.20;99.90
58554;DHT22;48119;53.218;6.576;2023-07-28T01:38:49;19.10;99.90
58554;DHT22;48119;53.218;6.576;2023-07-28T01:41:15;19.20;99.90
58554;DHT22;48119;53.218;6.576;2023-07-28T01:43:41;19.20;99.90
58554;DHT22;48119;53.218;6.576;2023-07-28T01:46:07;19.20;99.90
58554;DHT22;48119;53.218;6.576;2023-07-28T01:48:33;19.20;99.90
58554;DHT22;48119;53.218;6.576;2023-07-28T01:50:59;19.20;99.90
58554;DHT22;48119;53.218;6.576;2023-07-28T01:53:25;19.20;99.90
58554;DHT22;48119;53.218;6.576;2023-07-28T01:55:50;19.20;99.90
58554;DHT22;48119;53.218;6.576;2023-07-28T01:58:16;19.20;99.90
58554;DHT22;48119;53.218;6.576;2023-07-28T02:00:42;19.20;99.90
58554;DHT22;48119;53.218;6.576;2023-07-28T02:03:08;19.20;99.90
58554;DHT22;48119;53.218;6.576;2023-07-28T02:05:33;19.20;99.90
58554;DHT22;48119;53.218;6.576;2023-07-28T02:07:59;19.10;99.90
58554;DHT22;48119;53.218;6.576;2023-07-28T02:10:26;19.20;99.90
58554;DHT22;48119;53.218;6.576;2023-07-28T02:12:52;19.20;99.90
58554;DHT22;48119;53.218;6.576;2023-07-28T02:15:18;19.20;99.90
58554;DHT22;48119;53.218;6.576;2023-07-28T02:17:44;19.20;99.90
58554;DHT22;48119;53.218;6.576;2023-07-28T02:20:10;19.20;99.90
58554;DHT22;48119;53.218;6.576;2023-07-28T02:22:44;19.20;99.90
58554;DHT22;48119;53.218;6.576;2023-07-28T02:25:10;19.20;99.90
58554;DHT22;48119;53.218;6.576;2023-07-28T02:27:37;19.20;99.90
58554;DHT22;48119;53.218;6.576;2023-07-28T02:30:04;19.20;99.90
58554;DHT22;48119;53.218;6.576;2023-07-28T02:32:30;19.20;99.90
58554;DHT22;48119;53.218;6.576;2023-07-28T02:34:56;19.20;99.90
58554;DHT22;48119;53.218;6.576;2023-07-28T02:37:21;19.20;99.90
58554;DHT22;48119;53.218;6.576;2023-07-28T02:39:47;19.20;99.90
58554;DHT22;48119;53.218;6.576;2023-07-28T02:42:13;19.20;99.90
58554;DHT22;48119;53.218;6.576;2023-07-28T02:44:39;19.20;99.90
58554;DHT22;48119;53.218;6.576;2023-07-28T02:47:05;19.20;99.90
58554;DHT22;48119;53.218;6.576;2023-07-28T02:49:31;19.20;99.90
58554;DHT22;48119;53.218;6.576;2023-07-28T02:51:56;19.20;99.90
58554;DHT22;48119;53.218;6.576;2023-07-28T02:54:22;19.20;99.90
58554;DHT22;48119;53.218;6.576;2023-07-28T02:56:51;19.20;99.90
58554;DHT22;48119;53.218;6.576;2023-07-28T02:59:17;19.20;99.90
58554;DHT22;48119;53.218;6.576;2023-07-28T03:01:42;19.20;99.90
58554;DHT22;48119;53.218;6.576;2023-07-28T03:04:08;19.20;99.90
58554;DHT22;48119;53.218;6.576;2023-07-28T03:06:34;19.20;99.90
58554;DHT22;48119;53.218;6.576;2023-07-28T03:09:00;19.20;99.90
58554;DHT22;48119;53.218;6.576;2023-07-28T03:11:26;19.20;99.90
58554;DHT22;48119;53.218;6.576;2023-07-28T03:13:51;19.20;99.90
58554;DHT22;48119;53.218;6.576;2023-07-28T03:16:17;19.20;99.90
58554;DHT22;48119;53.218;6.576;2023-07-28T03:18:43;19.20;99.90
58554;DHT22;48119;53.218;6.576;2023-07-28T03:21:09;19.20;99.90
58554;DHT22;48119;53.218;6.576;2023-07-28T03:23:35;19.20;99.90
58554;DHT22;48119;53.218;6.576;2023-07-28T03:26:01;19.20;99.90
58554;DHT22;48119;53.218;6.576;2023-07-28T03:28:27;19.20;99.90
58554;DHT22;48119;53.218;6.576;2023-07-28T03:30:53;19.20;99.90
58554;DHT22;48119;53.218;6.576;2023-07-28T03:33:19;19.20;99.90
58554;DHT22;48119;53.218;6.576;2023-07-28T03:35:45;19.20;99.90
58554;DHT22;48119;53.218;6.576;2023-07-28T03:38:10;19.20;99.90
58554;DHT22;48119;53.218;6.576;2023-07-28T03:40:36;19.20;99.90
58554;DHT22;48119;53.218;6.576;2023-07-28T03:43:02;19.20;99.90
58554;DHT22;48119;53.218;6.576;2023-07-28T03:45:28;19.20;99.90
58554;DHT22;48119;53.218;6.576;2023-07-28T03:47:54;19.20;99.90
58554;DHT22;48119;53.218;6.576;2023-07-28T03:50:20;19.20;99.90
58554;DHT22;48119;53.218;6.576;2023-07-28T03:52:46;19.20;99.90
58554;DHT22;48119;53.218;6.576;2023-07-28T03:55:11;19.20;99.90
58554;DHT22;48119;53.218;6.576;2023-07-28T03:57:37;19.20;99.90
58554;DHT22;48119;53.218;6.576;2023-07-28T04:00:03;19.20;99.90
58554;DHT22;48119;53.218;6.576;2023-07-28T04:02:29;19.20;99.90
58554;DHT22;48119;53.218;6.576;2023-07-28T04:04:56;19.20;99.90
58554;DHT22;48119;53.218;6.576;2023-07-28T04:07:22;19.20;99.90
58554;DHT22;48119;53.218;6.576;2023-07-28T04:09:48;19.20;99.90
58554;DHT22;48119;53.218;6.576;2023-07-28T04:12:14;19.20;99.90
58554;DHT22;48119;53.218;6.576;2023-07-28T04:14:40;19.20;99.90
58554;DHT22;48119;53.218;6.576;2023-07-28T04:17:11;19.20;99.90
58554;DHT22;48119;53.218;6.576;2023-07-28T04:19:37;19.20;99.90
58554;DHT22;48119;53.218;6.576;2023-07-28T04:22:03;19.20;99.90
58554;DHT22;48119;53.218;6.576;2023-07-28T04:24:29;19.20;99.90
58554;DHT22;48119;53.218;6.576;2023-07-28T04:26:55;19.10;99.90
58554;DHT22;48119;53.218;6.576;2023-07-28T04:29:24;19.20;99.90
58554;DHT22;48119;53.218;6.576;2023-07-28T04:31:50;19.20;99.90
58554;DHT22;48119;53.218;6.576;2023-07-28T04:34:16;19.20;99.90
58554;DHT22;48119;53.218;6.576;2023-07-28T04:36:41;19.20;99.90
58554;DHT22;48119;53.218;6.576;2023-07-28T04:39:07;19.20;99.90
58554;DHT22;48119;53.218;6.576;2023-07-28T04:41:33;19.20;99.90
58554;DHT22;48119;53.218;6.576;2023-07-28T04:43:59;19.20;99.90
58554;DHT22;48119;53.218;6.576;2023-07-28T04:46:24;19.20;99.90
58554;DHT22;48119;53.218;6.576;2023-07-28T04:48:50;19.20;99.90
58554;DHT22;48119;53.218;6.576;2023-07-28T04:51:16;19.20;99.90
58554;DHT22;48119;53.218;6.576;2023-07-28T04:53:41;19.20;99.90
58554;DHT22;48119;53.218;6.576;2023-07-28T04:56:07;19.20;99.90
58554;DHT22;48119;53.218;6.576;2023-07-28T04:58:33;19.20;99.90
58554;DHT22;48119;53.218;6.576;2023-07-28T05:00:59;19.20;99.90
58554;DHT22;48119;53.218;6.576;2023-07-28T05:03:25;19.20;99.90
58554;DHT22;48119;53.218;6.576;2023-07-28T05:05:50;19.20;99.90
58554;DHT22;48119;53.218;6.576;2023-07-28T05:08:16;19.20;99.90
58554;DHT22;48119;53.218;6.576;2023-07-28T05:10:42;19.20;99.90
58554;DHT22;48119;53.218;6.576;2023-07-28T05:13:08;19.20;99.90
58554;DHT22;48119;53.218;6.576;2023-07-28T05:15:34;19.20;99.90
58554;DHT22;48119;53.218;6.576;2023-07-28T05:18:00;19.20;99.90
58554;DHT22;48119;53.218;6.576;2023-07-28T05:20:26;19.20;99.90
58554;DHT22;48119;53.218;6.576;2023-07-28T05:22:51;19.20;99.90
58554;DHT22;48119;53.218;6.576;2023-07-28T05:25:17;19.20;99.90
58554;DHT22;48119;53.218;6.576;2023-07-28T05:27:43;19.20;99.90
58554;DHT22;48119;53.218;6.576;2023-07-28T05:30:09;19.20;99.90
58554;DHT22;48119;53.218;6.576;2023-07-28T05:32:37;19.20;99.90
58554;DHT22;48119;53.218;6.576;2023-07-28T05:35:03;19.20;99.90
58554;DHT22;48119;53.218;6.576;2023-07-28T05:37:32;19.20;99.90
58554;DHT22;48119;53.218;6.576;2023-07-28T05:39:58;19.20;99.90
58554;DHT22;48119;53.218;6.576;2023-07-28T05:42:23;19.20;99.90
58554;DHT22;48119;53.218;6.576;2023-07-28T05:44:50;19.20;99.90
58554;DHT22;48119;53.218;6.576;2023-07-28T05:47:17;19.10;99.90
58554;DHT22;48119;53.218;6.576;2023-07-28T05:49:43;19.20;99.90
58554;DHT22;48119;53.218;6.576;2023-07-28T05:52:11;19.20;99.90
58554;DHT22;48119;53.218;6.576;2023-07-28T05:54:37;19.20;99.90
58554;DHT22;48119;53.218;6.576;2023-07-28T05:57:03;19.20;99.90
58554;DHT22;48119;53.218;6.576;2023-07-28T05:59:29;19.20;99.90
58554;DHT22;48119;53.218;6.576;2023-07-28T06:01:55;19.20;99.90
58554;DHT22;48119;53.218;6.576;2023-07-28T06:04:21;19.20;99.90
58554;DHT22;48119;53.218;6.576;2023-07-28T06:06:47;19.20;99.90
58554;DHT22;48119;53.218;6.576;2023-07-28T06:09:13;19.20;99.90
58554;DHT22;48119;53.218;6.576;2023-07-28T06:11:39;19.20;99.90
58554;DHT22;48119;53.218;6.576;2023-07-28T06:14:04;19.20;99.90
58554;DHT22;48119;53.218;6.576;2023-07-28T06:16:30;19.20;99.90
58554;DHT22;48119;53.218;6.576;2023-07-28T06:18:56;19.20;99.90
58554;DHT22;48119;53.218;6.576;2023-07-28T06:21:22;19.20;99.90
58554;DHT22;48119;53.218;6.576;2023-07-28T06:23:48;19.20;99.90
58554;DHT22;48119;53.218;6.576;2023-07-28T06:26:14;19.20;99.90
58554;DHT22;48119;53.218;6.576;2023-07-28T06:28:40;19.20;99.90
58554;DHT22;48119;53.218;6.576;2023-07-28T06:31:06;19.30;99.90
58554;DHT22;48119;53.218;6.576;2023-07-28T06:33:31;19.30;99.90
58554;DHT22;48119;53.218;6.576;2023-07-28T06:35:57;19.20;99.90
58554;DHT22;48119;53.218;6.576;2023-07-28T06:38:23;19.30;99.90
58554;DHT22;48119;53.218;6.576;2023-07-28T06:40:49;19.30;99.90
58554;DHT22;48119;53.218;6.576;2023-07-28T06:43:15;19.30;99.90
58554;DHT22;48119;53.218;6.576;2023-07-28T06:45:41;19.30;99.90
58554;DHT22;48119;53.218;6.576;2023-07-28T06:48:07;19.30;99.90
58554;DHT22;48119;53.218;6.576;2023-07-28T06:50:34;19.30;99.90
58554;DHT22;48119;53.218;6.576;2023-07-28T06:52:59;19.30;99.90
58554;DHT22;48119;53.218;6.576;2023-07-28T06:55:25;19.30;99.90
58554;DHT22;48119;53.218;6.576;2023-07-28T06:57:51;19.30;99.90
58554;DHT22;48119;53.218;6.576;2023-07-28T07:00:28;19.30;99.90
58554;DHT22;48119;53.218;6.576;2023-07-28T07:02:56;19.30;99.90
58554;DHT22;48119;53.218;6.576;2023-07-28T07:05:22;19.30;99.90
58554;DHT22;48119;53.218;6.576;2023-07-28T07:07:49;19.30;99.90
58554;DHT22;48119;53.218;6.576;2023-07-28T07:10:18;19.40;99.90
58554;DHT22;48119;53.218;6.576;2023-07-28T07:12:44;19.30;99.90
58554;DHT22;48119;53.218;6.576;2023-07-28T07:15:10;19.30;99.90
58554;DHT22;48119;53.218;6.576;2023-07-28T07:17:37;19.40;99.90
58554;DHT22;48119;53.218;6.576;2023-07-28T07:20:03;19.30;99.90
58554;DHT22;48119;53.218;6.576;2023-07-28T07:22:31;19.40;99.90
58554;DHT22;48119;53.218;6.576;2023-07-28T07:24:57;19.40;99.90
58554;DHT22;48119;53.218;6.576;2023-07-28T07:27:24;19.40;99.90
58554;DHT22;48119;53.218;6.576;2023-07-28T07:29:50;19.40;99.90
58554;DHT22;48119;53.218;6.576;2023-07-28T07:32:16;19.40;99.90
58554;DHT22;48119;53.218;6.576;2023-07-28T07:34:42;19.40;99.90
58554;DHT22;48119;53.218;6.576;2023-07-28T07:37:09;19.40;99.90
58554;DHT22;48119;53.218;6.576;2023-07-28T07:39:35;19.40;99.90
58554;DHT22;48119;53.218;6.576;2023-07-28T07:42:02;19.40;99.90
58554;DHT22;48119;53.218;6.576;2023-07-28T07:44:28;19.50;99.90
58554;DHT22;48119;53.218;6.576;2023-07-28T07:47:00;19.50;99.90
58554;DHT22;48119;53.218;6.576;2023-07-28T07:49:26;19.50;99.90
58554;DHT22;48119;53.218;6.576;2023-07-28T07:51:51;19.50;99.90
58554;DHT22;48119;53.218;6.576;2023-07-28T07:54:17;19.50;99.90
58554;DHT22;48119;53.218;6.576;2023-07-28T07:56:44;19.50;99.90
58554;DHT22;48119;53.218;6.576;2023-07-28T07:59:12;19.50;99.90
58554;DHT22;48119;53.218;6.576;2023-07-28T08:01:38;19.50;99.90
58554;DHT22;48119;53.218;6.576;2023-07-28T08:04:03;19.50;99.90
58554;DHT22;48119;53.218;6.576;2023-07-28T08:06:29;19.50;99.90
58554;DHT22;48119;53.218;6.576;2023-07-28T08:08:55;19.50;99.90
58554;DHT22;48119;53.218;6.576;2023-07-28T08:11:22;19.50;99.90
58554;DHT22;48119;53.218;6.576;2023-07-28T08:13:48;19.50;99.90
58554;DHT22;48119;53.218;6.576;2023-07-28T08:16:14;19.50;99.90
58554;DHT22;48119;53.218;6.576;2023-07-28T08:18:40;19.50;99.90
58554;DHT22;48119;53.218;6.576;2023-07-28T08:21:05;19.60;99.90
58554;DHT22;48119;53.218;6.576;2023-07-28T08:23:31;19.60;99.90
58554;DHT22;48119;53.218;6.576;2023-07-28T08:25:59;19.60;99.90
58554;DHT22;48119;53.218;6.576;2023-07-28T08:28:25;19.60;99.90
58554;DHT22;48119;53.218;6.576;2023-07-28T08:30:57;19.60;99.90
58554;DHT22;48119;53.218;6.576;2023-07-28T08:33:25;19.60;99.90
58554;DHT22;48119;53.218;6.576;2023-07-28T08:35:51;19.60;99.90
58554;DHT22;48119;53.218;6.576;2023-07-28T08:38:17;19.60;99.90
58554;DHT22;48119;53.218;6.576;2023-07-28T08:40:46;19.70;99.90
58554;DHT22;48119;53.218;6.576;2023-07-28T08:43:14;19.70;99.90
58554;DHT22;48119;53.218;6.576;2023-07-28T08:45:49;19.70;99.90
58554;DHT22;48119;53.218;6.576;2023-07-28T08:48:24;19.70;99.90
58554;DHT22;48119;53.218;6.576;2023-07-28T08:50:51;19.70;99.90
58554;DHT22;48119;53.218;6.576;2023-07-28T08:53:18;19.80;99.90
58554;DHT22;48119;53.218;6.576;2023-07-28T08:55:44;19.70;99.90
58554;DHT22;48119;53.218;6.576;2023-07-28T08:58:17;19.70;99.90
58554;DHT22;48119;53.218;6.576;2023-07-28T09:00:45;19.70;99.90
58554;DHT22;48119;53.218;6.576;2023-07-28T09:03:14;19.70;99.90
58554;DHT22;48119;53.218;6.576;2023-07-28T09:05:40;19.80;99.90
58554;DHT22;48119;53.218;6.576;2023-07-28T09:08:07;19.80;99.90
58554;DHT22;48119;53.218;6.576;2023-07-28T09:10:53;19.80;99.90
58554;DHT22;48119;53.218;6.576;2023-07-28T09:13:22;19.80;99.90
58554;DHT22;48119;53.218;6.576;2023-07-28T09:15:49;19.80;99.90
58554;DHT22;48119;53.218;6.576;2023-07-28T09:18:16;19.80;99.90
58554;DHT22;48119;53.218;6.576;2023-07-28T09:20:42;19.80;99.90
58554;DHT22;48119;53.218;6.576;2023-07-28T09:23:09;19.70;99.90
58554;DHT22;48119;53.218;6.576;2023-07-28T09:25:36;19.80;99.90
58554;DHT22;48119;53.218;6.576;2023-07-28T09:28:02;19.80;99.90
58554;DHT22;48119;53.218;6.576;2023-07-28T09:30:47;19.80;99.90
58554;DHT22;48119;53.218;6.576;2023-07-28T09:33:28;19.80;99.90
58554;DHT22;48119;53.218;6.576;2023-07-28T09:35:54;19.80;99.90
58554;DHT22;48119;53.218;6.576;2023-07-28T09:38:22;19.80;99.90
58554;DHT22;48119;53.218;6.576;2023-07-28T09:40:49;19.90;99.90
58554;DHT22;48119;53.218;6.576;2023-07-28T09:43:17;20.00;99.90
58554;DHT22;48119;53.218;6.576;2023-07-28T09:45:44;20.10;99.90
58554;DHT22;48119;53.218;6.576;2023-07-28T09:48:10;20.10;99.90
58554;DHT22;48119;53.218;6.576;2023-07-28T09:50:39;20.20;99.90
58554;DHT22;48119;53.218;6.576;2023-07-28T09:53:09;20.30;99.90
58554;DHT22;48119;53.218;6.576;2023-07-28T09:55:38;20.40;99.90
58554;DHT22;48119;53.218;6.576;2023-07-28T09:58:06;20.40;99.90
58554;DHT22;48119;53.218;6.576;2023-07-28T10:00:34;20.50;99.90
58554;DHT22;48119;53.218;6.576;2023-07-28T10:03:02;20.50;99.90
58554;DHT22;48119;53.218;6.576;2023-07-28T10:05:28;20.50;99.90
58554;DHT22;48119;53.218;6.576;2023-07-28T10:07:56;20.50;99.90
58554;DHT22;48119;53.218;6.576;2023-07-28T10:10:22;20.50;99.90
58554;DHT22;48119;53.218;6.576;2023-07-28T10:12:50;20.50;99.90
58554;DHT22;48119;53.218;6.576;2023-07-28T10:15:17;20.50;99.90
58554;DHT22;48119;53.218;6.576;2023-07-28T10:17:55;20.50;99.90
58554;DHT22;48119;53.218;6.576;2023-07-28T10:20:33;20.50;99.90
58554;DHT22;48119;53.218;6.576;2023-07-28T10:23:21;20.60;99.90
58554;DHT22;48119;53.218;6.576;2023-07-28T10:25:57;20.70;99.90
58554;DHT22;48119;53.218;6.576;2023-07-28T10:28:37;20.60;99.90
58554;DHT22;48119;53.218;6.576;2023-07-28T10:31:10;20.60;99.90
58554;DHT22;48119;53.218;6.576;2023-07-28T10:33:43;20.70;99.90
58554;DHT22;48119;53.218;6.576;2023-07-28T10:36:18;20.70;99.90
58554;DHT22;48119;53.218;6.576;2023-07-28T10:38:44;20.70;99.90
58554;DHT22;48119;53.218;6.576;2023-07-28T10:41:14;20.80;99.90
58554;DHT22;48119;53.218;6.576;2023-07-28T10:43:40;20.80;99.90
58554;DHT22;48119;53.218;6.576;2023-07-28T10:46:11;20.90;99.90
58554;DHT22;48119;53.218;6.576;2023-07-28T10:48:46;20.90;99.90
58554;DHT22;48119;53.218;6.576;2023-07-28T10:51:19;21.00;99.90
58554;DHT22;48119;53.218;6.576;2023-07-28T10:53:45;21.00;99.90
58554;DHT22;48119;53.218;6.576;2023-07-28T10:56:11;21.00;99.90
58554;DHT22;48119;53.218;6.576;2023-07-28T10:58:37;21.00;99.90
58554;DHT22;48119;53.218;6.576;2023-07-28T11:01:03;21.00;99.90
58554;DHT22;48119;53.218;6.576;2023-07-28T11:03:29;21.10;99.90
58554;DHT22;48119;53.218;6.576;2023-07-28T11:05:55;21.10;99.90
58554;DHT22;48119;53.218;6.576;2023-07-28T11:08:22;21.10;99.90
58554;DHT22;48119;53.218;6.576;2023-07-28T11:10:48;21.10;99.90
58554;DHT22;48119;53.218;6.576;2023-07-28T11:13:14;21.10;99.90
58554;DHT22;48119;53.218;6.576;2023-07-28T11:15:42;21.10;99.90
58554;DHT22;48119;53.218;6.576;2023-07-28T11:18:11;21.10;99.90
58554;DHT22;48119;53.218;6.576;2023-07-28T11:20:41;21.20;99.90
58554;DHT22;48119;53.218;6.576;2023-07-28T11:23:07;21.20;99.90
58554;DHT22;48119;53.218;6.576;2023-07-28T11:25:34;21.30;99.90
58554;DHT22;48119;53.218;6.576;2023-07-28T11:28:02;21.30;99.90
58554;DHT22;48119;53.218;6.576;2023-07-28T11:30:32;21.20;99.90
58554;DHT22;48119;53.218;6.576;2023-07-28T11:32:59;21.30;99.90
58554;DHT22;48119;53.218;6.576;2023-07-28T11:35:25;21.30;99.90
58554;DHT22;48119;53.218;6.576;2023-07-28T11:37:52;21.30;99.90
58554;DHT22;48119;53.218;6.576;2023-07-28T11:40:20;21.40;99.90
58554;DHT22;48119;53.218;6.576;2023-07-28T11:42:53;21.50;99.90
58554;DHT22;48119;53.218;6.576;2023-07-28T11:45:20;21.50;99.90
58554;DHT22;48119;53.218;6.576;2023-07-28T11:48:02;21.50;99.90
58554;DHT22;48119;53.218;6.576;2023-07-28T11:50:37;21.60;99.90
58554;DHT22;48119;53.218;6.576;2023-07-28T11:53:03;21.60;99.90
58554;DHT22;48119;53.218;6.576;2023-07-28T11:55:29;21.60;99.90
58554;DHT22;48119;53.218;6.576;2023-07-28T11:57:55;21.60;99.90
58554;DHT22;48119;53.218;6.576;2023-07-28T12:00:29;21.60;99.90
58554;DHT22;48119;53.218;6.576;2023-07-28T12:03:07;21.70;99.90
58554;DHT22;48119;53.218;6.576;2023-07-28T12:05:58;21.70;99.90
58554;DHT22;48119;53.218;6.576;2023-07-28T12:08:37;21.70;99.90
58554;DHT22;48119;53.218;6.576;2023-07-28T12:11:03;21.80;99.90
58554;DHT22;48119;53.218;6.576;2023-07-28T12:13:29;21.80;99.90
58554;DHT22;48119;53.218;6.576;2023-07-28T12:15:55;21.90;99.90
58554;DHT22;48119;53.218;6.576;2023-07-28T12:18:27;21.90;99.90
58554;DHT22;48119;53.218;6.576;2023-07-28T12:20:55;21.90;99.90
58554;DHT22;48119;53.218;6.576;2023-07-28T12:23:22;21.90;99.90
58554;DHT22;48119;53.218;6.576;2023-07-28T12:25:49;21.90;99.90
58554;DHT22;48119;53.218;6.576;2023-07-28T12:28:16;22.00;99.90
58554;DHT22;48119;53.218;6.576;2023-07-28T12:30:45;22.00;99.90
58554;DHT22;48119;53.218;6.576;2023-07-28T12:33:16;22.00;99.90
58554;DHT22;48119;53.218;6.576;2023-07-28T12:35:42;22.10;99.90
58554;DHT22;48119;53.218;6.576;2023-07-28T12:38:08;22.10;99.90
58554;DHT22;48119;53.218;6.576;2023-07-28T12:40:34;22.10;99.90
58554;DHT22;48119;53.218;6.576;2023-07-28T12:43:01;22.10;99.90
58554;DHT22;48119;53.218;6.576;2023-07-28T12:45:28;22.10;99.90
58554;DHT22;48119;53.218;6.576;2023-07-28T12:47:54;22.20;99.90
58554;DHT22;48119;53.218;6.576;2023-07-28T12:50:21;22.20;99.90
58554;DHT22;48119;53.218;6.576;2023-07-28T12:52:50;22.20;99.90
58554;DHT22;48119;53.218;6.576;2023-07-28T12:55:17;22.20;99.90
58554;DHT22;48119;53.218;6.576;2023-07-28T12:57:46;22.20;99.90
58554;DHT22;48119;53.218;6.576;2023-07-28T13:00:14;22.30;99.90
58554;DHT22;48119;53.218;6.576;2023-07-28T13:02:42;22.30;99.90
58554;DHT22;48119;53.218;6.576;2023-07-28T13:05:13;22.30;99.90
58554;DHT22;48119;53.218;6.576;2023-07-28T13:07:40;22.30;99.90
58554;DHT22;48119;53.218;6.576;2023-07-28T13:10:08;22.30;99.90
58554;DHT22;48119;53.218;6.576;2023-07-28T13:12:35;22.30;99.90
58554;DHT22;48119;53.218;6.576;2023-07-28T13:15:01;22.30;99.90
58554;DHT22;48119;53.218;6.576;2023-07-28T13:17:27;22.30;99.90
58554;DHT22;48119;53.218;6.576;2023-07-28T13:19:56;22.30;99.90
58554;DHT22;48119;53.218;6.576;2023-07-28T13:22:25;22.30;99.90
58554;DHT22;48119;53.218;6.576;2023-07-28T13:24:52;22.30;99.90
58554;DHT22;48119;53.218;6.576;2023-07-28T13:27:18;22.30;99.90
58554;DHT22;48119;53.218;6.576;2023-07-28T13:29:43;22.30;99.90
58554;DHT22;48119;53.218;6.576;2023-07-28T13:32:23;22.40;99.90
58554;DHT22;48119;53.218;6.576;2023-07-28T13:34:49;22.40;99.90
58554;DHT22;48119;53.218;6.576;2023-07-28T13:37:15;22.40;99.90
58554;DHT22;48119;53.218;6.576;2023-07-28T13:39:41;22.50;99.90
58554;DHT22;48119;53.218;6.576;2023-07-28T13:42:08;22.50;99.90
58554;DHT22;48119;53.218;6.576;2023-07-28T13:44:33;22.50;99.90
58554;DHT22;48119;53.218;6.576;2023-07-28T13:46:59;22.50;99.90
58554;DHT22;48119;53.218;6.576;2023-07-28T13:49:26;22.50;99.90
58554;DHT22;48119;53.218;6.576;2023-07-28T13:51:51;22.40;99.90
58554;DHT22;48119;53.218;6.576;2023-07-28T13:54:17;22.40;99.90
58554;DHT22;48119;53.218;6.576;2023-07-28T13:56:43;22.40;99.90
58554;DHT22;48119;53.218;6.576;2023-07-28T13:59:12;22.40;99.90
58554;DHT22;48119;53.218;6.576;2023-07-28T14:01:38;22.40;99.90
58554;DHT22;48119;53.218;6.576;2023-07-28T14:04:04;22.30;99.90
58554;DHT22;48119;53.218;6.576;2023-07-28T14:06:32;22.30;99.90
58554;DHT22;48119;53.218;6.576;2023-07-28T14:08:58;22.30;99.90
58554;DHT22;48119;53.218;6.576;2023-07-28T14:11:24;22.30;99.90
58554;DHT22;48119;53.218;6.576;2023-07-28T14:13:49;22.30;99.90
58554;DHT22;48119;53.218;6.576;2023-07-28T14:16:15;22.30;99.90
58554;DHT22;48119;53.218;6.576;2023-07-28T14:18:44;22.30;99.90
58554;DHT22;48119;53.218;6.576;2023-07-28T14:21:13;22.30;99.90
58554;DHT22;48119;53.218;6.576;2023-07-28T14:23:39;22.30;99.90
58554;DHT22;48119;53.218;6.576;2023-07-28T14:26:04;22.30;99.90
58554;DHT22;48119;53.218;6.576;2023-07-28T14:28:30;22.30;99.90
58554;DHT22;48119;53.218;6.576;2023-07-28T14:30:59;22.30;99.90
58554;DHT22;48119;53.218;6.576;2023-07-28T14:33:26;22.30;99.90
58554;DHT22;48119;53.218;6.576;2023-07-28T14:35:52;22.30;99.90
58554;DHT22;48119;53.218;6.576;2023-07-28T14:38:19;22.30;99.90
58554;DHT22;48119;53.218;6.576;2023-07-28T14:40:45;22.30;99.90
58554;DHT22;48119;53.218;6.576;2023-07-28T14:43:15;22.30;99.90
58554;DHT22;48119;53.218;6.576;2023-07-28T14:45:41;22.30;99.90
58554;DHT22;48119;53.218;6.576;2023-07-28T14:48:07;22.30;99.90
58554;DHT22;48119;53.218;6.576;2023-07-28T14:50:33;22.30;99.90
58554;DHT22;48119;53.218;6.576;2023-07-28T14:52:59;22.20;99.90
58554;DHT22;48119;53.218;6.576;2023-07-28T14:55:26;22.20;99.90
58554;DHT22;48119;53.218;6.576;2023-07-28T14:57:53;22.20;99.90
58554;DHT22;48119;53.218;6.576;2023-07-28T15:00:19;22.30;99.90
58554;DHT22;48119;53.218;6.576;2023-07-28T15:02:45;22.30;99.90
58554;DHT22;48119;53.218;6.576;2023-07-28T15:05:10;22.30;99.90
58554;DHT22;48119;53.218;6.576;2023-07-28T15:07:36;22.30;99.90
58554;DHT22;48119;53.218;6.576;2023-07-28T15:10:03;22.30;99.90
58554;DHT22;48119;53.218;6.576;2023-07-28T15:12:30;22.30;99.90
58554;DHT22;48119;53.218;6.576;2023-07-28T15:14:56;22.30;99.90
58554;DHT22;48119;53.218;6.576;2023-07-28T15:17:22;22.40;99.90
58554;DHT22;48119;53.218;6.576;2023-07-28T15:19:47;22.40;99.90
58554;DHT22;48119;53.218;6.576;2023-07-28T15:22:13;22.40;99.90
58554;DHT22;48119;53.218;6.576;2023-07-28T15:24:39;22.40;99.90
58554;DHT22;48119;53.218;6.576;2023-07-28T15:27:06;22.40;99.90
58554;DHT22;48119;53.218;6.576;2023-07-28T15:29:32;22.40;99.90
58554;DHT22;48119;53.218;6.576;2023-07-28T15:31:58;22.40;99.90